Time;durP1;ratioP1;P1;durP2;ratioP2;P2;SDS_P1;SDS_P2;PMS_P1;PMS_P2;Temp;Humidity;BMP_temperature;BMP_pressure;BME280_temperature;BME280_humidity;BME280_pressure;Samples;Min_cycle;Max_cycle;Signal;HPM_P1;HPM_P2
2021/03/06 00:00:06;;;;;;;22.27;14.27;;;103.30;2227.20;;;;;;4953289;28;20031;-72
2021/03/06 00:02:31;;;;;;;22.88;13.35;;;128.00;2252.80;;;;;;4951395;29;20031;-72
2021/03/06 00:04:57;;;;;;;29.70;17.33;;;103.20;2227.20;;;;;;4953184;28;20057;-71
2021/03/06 00:07:23;;;;;;;18.80;12.27;;;103.30;2227.20;;;;;;4953713;28;20031;-72
2021/03/06 00:09:49;;;;;;;33.97;19.80;;;128.00;2252.80;;;;;;4953898;28;20050;-73
2021/03/06 00:12:14;;;;;;;31.35;18.88;;;128.00;2252.80;;;;;;4953744;28;20034;-72
2021/03/06 00:14:43;;;;;;;27.85;16.08;;;128.00;2252.80;;;;;;4952817;28;20127;-73
2021/03/06 00:17:08;;;;;;;23.85;15.07;;;128.00;2252.80;;;;;;4953500;28;20412;-71
2021/03/06 00:19:34;;;;;;;27.42;16.05;;;128.00;2252.80;;;;;;4952823;28;20106;-71
2021/03/06 00:22:00;;;;;;;28.80;17.33;;;103.30;2227.20;;;;;;4953198;28;20031;-72
2021/03/06 00:24:26;;;;;;;24.35;16.05;;;103.30;2227.20;;;;;;4955003;28;20023;-72
2021/03/06 00:26:51;;;;;;;26.02;16.33;;;103.30;2227.20;;;;;;4956261;28;20034;-72
2021/03/06 00:29:17;;;;;;;39.83;22.88;;;103.30;2227.20;;;;;;4958367;28;20027;-72
2021/03/06 00:31:43;;;;;;;23.10;16.02;;;103.20;2227.20;;;;;;4936038;29;20031;-71
2021/03/06 00:34:08;;;;;;;30.70;18.55;;;103.30;2227.20;;;;;;4953269;28;20036;-71
2021/03/06 00:36:34;;;;;;;25.60;16.63;;;103.30;2227.20;;;;;;4953076;28;20039;-71
2021/03/06 00:39:00;;;;;;;23.42;15.75;;;103.30;2227.20;;;;;;4944664;28;20432;-72
2021/03/06 00:41:26;;;;;;;17.48;12.88;;;103.30;2227.20;;;;;;4948653;28;20106;-71
2021/03/06 00:43:52;;;;;;;18.23;12.57;;;103.20;2227.20;;;;;;4953640;28;20114;-72
2021/03/06 00:46:18;;;;;;;22.27;15.48;;;103.20;2227.20;;;;;;4954570;28;20524;-71
2021/03/06 00:48:43;;;;;;;20.48;14.35;;;103.10;2227.20;;;;;;4956965;28;20085;-71
2021/03/06 00:51:10;;;;;;;21.10;14.60;;;103.10;2227.20;;;;;;4956291;28;20043;-72
2021/03/06 00:53:37;;;;;;;17.00;11.90;;;103.10;2227.20;;;;;;4956797;28;20401;-72
2021/03/06 00:56:03;;;;;;;18.00;13.07;;;103.20;2227.20;;;;;;4956752;28;20043;-71
2021/03/06 00:58:29;;;;;;;19.67;12.73;;;103.00;2227.20;;;;;;4957140;28;20031;-73
2021/03/06 01:00:55;;;;;;;14.63;10.95;;;103.00;2227.20;;;;;;4957033;28;20023;-72
2021/03/06 01:03:21;;;;;;;18.40;12.15;;;102.50;2227.20;;;;;;4956459;28;20024;-71
2021/03/06 01:05:47;;;;;;;19.00;11.68;;;102.90;2227.20;;;;;;4957111;28;20043;-71
2021/03/06 01:08:13;;;;;;;17.55;12.00;;;102.80;2227.20;;;;;;4939842;29;20042;-72
2021/03/06 01:10:41;;;;;;;15.63;10.73;;;102.80;2227.20;;;;;;4956757;28;20027;-71
2021/03/06 01:13:08;;;;;;;16.48;11.07;;;102.80;2227.20;;;;;;4956022;28;20035;-71
2021/03/06 01:15:34;;;;;;;17.27;11.00;;;102.80;2227.20;;;;;;4956568;28;20050;-71
2021/03/06 01:18:01;;;;;;;16.42;11.35;;;102.70;2227.20;;;;;;4956757;28;20409;-71
2021/03/06 01:20:28;;;;;;;16.17;11.20;;;102.80;2227.20;;;;;;4956293;28;20065;-71
2021/03/06 01:22:53;;;;;;;14.43;9.98;;;102.80;2227.20;;;;;;4956428;28;20047;-71
2021/03/06 01:25:19;;;;;;;18.55;11.10;;;102.80;2227.20;;;;;;4956781;28;20477;-71
2021/03/06 01:27:45;;;;;;;20.27;13.00;;;102.80;2227.20;;;;;;4956681;28;20073;-71
2021/03/06 01:30:12;;;;;;;13.75;10.18;;;102.70;2227.20;;;;;;4956711;28;20441;-73
2021/03/06 01:32:38;;;;;;;16.20;11.00;;;102.70;2227.20;;;;;;4955712;28;20055;-72
2021/03/06 01:35:06;;;;;;;14.63;9.73;;;102.70;2227.20;;;;;;4956188;28;20039;-71
2021/03/06 01:37:32;;;;;;;13.65;10.27;;;102.70;2227.20;;;;;;4956624;28;20035;-72
2021/03/06 01:39:58;;;;;;;14.80;10.10;;;102.60;2227.20;;;;;;4957276;28;20556;-71
2021/03/06 01:42:23;;;;;;;14.35;9.82;;;102.60;2227.20;;;;;;4956639;28;20036;-71
2021/03/06 01:44:51;;;;;;;14.07;9.95;;;102.50;2227.20;;;;;;4955858;28;20500;-71
2021/03/06 01:47:17;;;;;;;13.90;9.75;;;102.50;2227.20;;;;;;4956677;28;20020;-71
2021/03/06 01:49:43;;;;;;;13.52;9.73;;;102.60;2227.20;;;;;;4954073;28;20102;-72
2021/03/06 01:52:09;;;;;;;19.65;12.20;;;102.50;2227.20;;;;;;4952987;28;20478;-72
2021/03/06 01:54:36;;;;;;;15.55;11.00;;;102.60;2227.20;;;;;;4949818;28;20027;-71
2021/03/06 01:57:02;;;;;;;14.05;10.10;;;102.50;2227.20;;;;;;4956201;28;20034;-72
2021/03/06 01:59:29;;;;;;;18.45;10.98;;;102.50;2227.20;;;;;;4955050;28;20035;-72
2021/03/06 02:01:55;;;;;;;14.60;10.15;;;102.50;2227.20;;;;;;4955155;28;20027;-71
2021/03/06 02:04:20;;;;;;;17.10;11.40;;;102.50;2227.20;;;;;;4955501;28;20062;-73
2021/03/06 02:06:46;;;;;;;20.23;12.35;;;102.50;2227.20;;;;;;4955183;28;20034;-72
2021/03/06 02:09:12;;;;;;;23.40;13.40;;;102.50;2227.20;;;;;;4955851;28;20035;-72
2021/03/06 02:11:46;;;;;;;13.38;9.98;;;102.60;2227.20;;;;;;4962418;28;20034;-73
2021/03/06 02:14:36;;;;;;;19.50;12.85;;;102.60;2227.20;;;;;;4955260;28;20616;-71
2021/03/06 02:17:37;;;;;;;23.70;12.98;;;102.70;2227.20;;;;;;4955073;28;20065;-72
2021/03/06 02:20:39;;;;;;;21.70;13.32;;;102.70;2227.20;;;;;;4928739;29;20462;-71
2021/03/06 02:23:41;;;;;;;18.48;12.40;;;102.70;2227.20;;;;;;4910156;29;20094;-71
2021/03/06 02:26:31;;;;;;;18.77;12.85;;;102.60;2227.20;;;;;;4934051;29;20114;-71
2021/03/06 02:29:26;;;;;;;17.52;11.85;;;102.50;2227.20;;;;;;4934234;28;20039;-71
2021/03/06 02:31:55;;;;;;;20.20;13.95;;;102.40;2227.20;;;;;;4933630;29;20031;-72
2021/03/06 02:34:30;;;;;;;18.05;11.95;;;102.40;2227.20;;;;;;4933659;29;20043;-71
2021/03/06 02:37:01;;;;;;;21.27;14.88;;;102.40;2227.20;;;;;;4933671;29;20062;-71
2021/03/06 02:39:30;;;;;;;16.45;12.35;;;102.40;2227.20;;;;;;4934194;29;20089;-71
2021/03/06 02:41:58;;;;;;;16.95;11.63;;;102.40;2227.20;;;;;;4932500;29;20044;-71
2021/03/06 02:44:26;;;;;;;21.42;13.60;;;77.70;2227.20;;;;;;4934004;29;20533;-71
2021/03/06 02:46:51;;;;;;;16.02;10.70;;;77.70;2227.20;;;;;;4933313;29;20160;-71
2021/03/06 02:49:17;;;;;;;15.75;10.75;;;77.60;2227.20;;;;;;4933419;29;20533;-71
2021/03/06 02:51:44;;;;;;;13.85;9.98;;;77.60;2227.20;;;;;;4933352;29;20043;-71
2021/03/06 02:54:11;;;;;;;15.57;11.02;;;77.60;2227.20;;;;;;4933236;29;20062;-71
2021/03/06 02:56:37;;;;;;;14.43;10.25;;;77.60;2227.20;;;;;;4952532;28;20043;-72
2021/03/06 02:59:16;;;;;;;14.32;9.48;;;77.30;2227.20;;;;;;4954477;28;20023;-71
2021/03/06 03:01:59;;;;;;;15.57;10.27;;;77.40;2227.20;;;;;;4951015;28;20027;-72
2021/03/06 03:04:41;;;;;;;18.67;10.38;;;77.30;2227.20;;;;;;4948103;28;20031;-71
2021/03/06 03:07:19;;;;;;;14.05;10.27;;;77.20;2227.20;;;;;;4953998;28;20043;-71
2021/03/06 03:09:48;;;;;;;17.80;11.30;;;77.20;2227.20;;;;;;4953607;28;20038;-71
2021/03/06 03:12:38;;;;;;;13.48;9.57;;;77.30;2227.20;;;;;;4954333;28;20031;-71
2021/03/06 03:15:17;;;;;;;12.65;9.10;;;77.20;2227.20;;;;;;4954019;28;20129;-72
2021/03/06 03:17:50;;;;;;;16.13;9.90;;;77.20;2227.20;;;;;;4953791;28;20040;-72
2021/03/06 03:20:33;;;;;;;23.15;13.02;;;;;;;;;;4953900;28;20055;-72
2021/03/06 03:23:05;;;;;;;18.77;11.75;;;;;;;;;;4952526;28;20033;-71
2021/03/06 03:25:31;;;;;;;14.23;10.93;;;;;;;;;;4954559;28;20441;-71
2021/03/06 03:27:57;;;;;;;17.13;11.35;;;;;;;;;;4954573;28;20041;-71
2021/03/06 03:30:24;;;;;;;21.30;12.77;;;;;;;;;;4952959;28;20038;-71
2021/03/06 03:32:51;;;;;;;13.55;9.85;;;;;;;;;;4955660;28;20461;-72
2021/03/06 03:35:19;;;;;;;18.13;10.90;;;;;;;;;;4954225;28;20043;-72
2021/03/06 03:37:45;;;;;;;16.27;10.70;;;;;;;;;;4954005;28;20034;-72
2021/03/06 03:40:13;;;;;;;15.95;10.23;;;;;;;;;;4953423;28;20081;-72
2021/03/06 03:42:39;;;;;;;19.33;12.23;;;;;;;;;;4954670;28;20400;-71
2021/03/06 03:45:12;;;;;;;14.27;9.90;;;;;;;;;;4953623;28;20020;-71
2021/03/06 03:47:42;;;;;;;19.90;12.70;;;;;;;;;;4953510;28;20125;-71
2021/03/06 03:50:09;;;;;;;15.82;10.82;;;;;;;;;;4953696;28;20042;-71
2021/03/06 03:52:39;;;;;;;16.15;10.55;;;;;;;;;;4954043;28;20039;-71
2021/03/06 03:55:11;;;;;;;14.27;9.30;;;;;;;;;;4954054;28;20117;-72
2021/03/06 03:57:38;;;;;;;12.52;9.02;;;;;;;;;;4953571;28;20055;-71
2021/03/06 04:00:05;;;;;;;16.95;9.20;;;;;;;;;;4953501;28;20106;-72
2021/03/06 04:02:32;;;;;;;13.73;9.35;;;;;;;;;;4952632;28;20039;-71
2021/03/06 04:04:58;;;;;;;13.73;9.02;;;;;;;;;;4953483;28;20027;-71
2021/03/06 04:07:24;;;;;;;13.60;9.18;;;;;;;;;;4953901;28;20032;-71
2021/03/06 04:09:50;;;;;;;51.55;24.23;;;;;;;;;;4953775;28;20309;-71
2021/03/06 04:12:16;;;;;;;35.28;18.58;;;;;;;;;;4953046;28;20487;-71
2021/03/06 04:14:43;;;;;;;18.17;12.82;;;;;;;;;;4953501;28;20528;-71
2021/03/06 04:17:09;;;;;;;13.20;8.73;;;;;;;;;;4953840;29;20033;-71
2021/03/06 04:19:35;;;;;;;12.48;8.63;;;;;;;;;;4948244;28;20023;-72
2021/03/06 04:22:01;;;;;;;18.10;10.18;;;;;;;;;;4953294;28;20020;-71
2021/03/06 04:24:27;;;;;;;33.20;17.52;;;;;;;;;;4952629;28;20078;-72
2021/03/06 04:26:53;;;;;;;18.73;10.93;;;;;;;;;;4942823;28;20027;-71
2021/03/06 04:29:20;;;;;;;14.70;9.32;;;;;;;;;;4953296;28;20043;-74
2021/03/06 04:31:46;;;;;;;24.25;12.63;;;;;;;;;;4952736;28;20110;-71
2021/03/06 04:34:12;;;;;;;23.40;13.88;;;;;;;;;;4952677;28;20458;-71
2021/03/06 04:36:38;;;;;;;13.68;8.65;;;;;;;;;;4953170;28;20028;-71
2021/03/06 04:39:05;;;;;;;15.95;9.93;;;;;;;;;;4953423;28;20082;-72
2021/03/06 04:41:31;;;;;;;14.43;9.63;;;;;;;;;;4952717;28;20067;-73
2021/03/06 04:43:57;;;;;;;17.17;10.38;;;;;;;;;;4952809;28;20390;-73
2021/03/06 04:46:23;;;;;;;15.70;9.15;;;;;;;;;;4953181;28;20039;-72
2021/03/06 04:48:50;;;;;;;12.38;7.97;;;;;;;;;;4952903;28;20035;-72
2021/03/06 04:51:16;;;;;;;18.35;10.98;;;;;;;;;;4953258;28;20102;-72
2021/03/06 04:53:42;;;;;;;22.30;11.88;;;;;;;;;;4953212;28;20035;-72
2021/03/06 04:56:08;;;;;;;19.88;12.13;;;;;;;;;;4935618;29;20114;-72
2021/03/06 04:58:33;;;;;;;25.13;13.43;;;77.00;2227.20;;;;;;4952785;28;20508;-71
2021/03/06 05:00:59;;;;;;;15.80;10.35;;;76.80;2227.20;;;;;;4952597;28;20066;-70
2021/03/06 05:03:25;;;;;;;16.10;9.90;;;76.80;2227.20;;;;;;4952834;28;20473;-71
2021/03/06 05:05:50;;;;;;;25.20;11.88;;;76.90;2227.20;;;;;;4953244;28;20477;-73
2021/03/06 05:08:16;;;;;;;20.27;12.15;;;76.90;2227.20;;;;;;4953286;28;20038;-72
2021/03/06 05:10:42;;;;;;;30.83;16.27;;;76.90;2227.20;;;;;;4952782;28;20043;-72
2021/03/06 05:13:07;;;;;;;22.27;12.63;;;76.90;2227.20;;;;;;4952755;28;20048;-72
2021/03/06 05:15:33;;;;;;;19.63;10.70;;;76.80;2227.20;;;;;;4952943;28;20039;-71
2021/03/06 05:17:59;;;;;;;17.48;10.98;;;76.80;2227.20;;;;;;4950415;28;20054;-73
2021/03/06 05:20:25;;;;;;;19.35;12.00;;;52.10;2227.20;;;;;;4952079;28;20027;-74
2021/03/06 05:22:50;;;;;;;32.60;15.48;;;52.10;2227.20;;;;;;4955593;28;20031;-74
2021/03/06 05:25:16;;;;;;;18.25;10.43;;;76.80;2227.20;;;;;;4953967;28;20177;-74
2021/03/06 05:27:42;;;;;;;21.27;12.70;;;76.80;2227.20;;;;;;4951868;28;20054;-77
2021/03/06 05:30:08;;;;;;;20.08;11.77;;;76.80;2227.20;;;;;;4955744;28;20481;-74
2021/03/06 05:32:35;;;;;;;15.55;10.18;;;;;;;;;;4960624;28;20043;-71
2021/03/06 05:35:02;;;;;;;15.32;10.30;;;;;;;;;;4959085;28;20043;-72
2021/03/06 05:37:28;;;;;;;18.48;11.27;;;;;;;;;;4955509;28;20073;-72
2021/03/06 05:39:54;;;;;;;16.50;10.35;;;;;;;;;;4954650;28;20038;-72
2021/03/06 05:42:20;;;;;;;15.77;10.23;;;77.00;2227.20;;;;;;4955840;28;20035;-74
2021/03/06 05:44:46;;;;;;;16.00;10.20;;;76.90;2227.20;;;;;;4957812;28;20482;-68
2021/03/06 05:47:13;;;;;;;19.42;11.68;;;76.90;2227.20;;;;;;4956105;28;20073;-71
2021/03/06 05:49:38;;;;;;;18.33;11.55;;;76.80;2227.20;;;;;;4949136;28;20051;-75
2021/03/06 05:52:06;;;;;;;20.52;11.23;;;76.80;2227.20;;;;;;4955992;28;20066;-74
2021/03/06 05:54:34;;;;;;;19.70;11.32;;;76.80;2227.20;;;;;;4955153;28;20035;-73
2021/03/06 05:57:02;;;;;;;16.38;10.07;;;76.90;2227.20;;;;;;4955453;28;20034;-75
2021/03/06 05:59:29;;;;;;;15.23;9.95;;;77.00;2227.20;;;;;;4955608;28;20023;-75
2021/03/06 06:01:55;;;;;;;16.30;9.63;;;77.10;2227.20;;;;;;4963380;28;20048;-73
2021/03/06 06:04:28;;;;;;;16.60;10.80;;;77.00;2227.20;;;;;;4954719;28;20035;-75
2021/03/06 06:06:55;;;;;;;23.38;13.80;;;77.00;2227.20;;;;;;4955289;28;20489;-74
2021/03/06 06:09:21;;;;;;;24.00;13.82;;;77.00;2227.20;;;;;;4955645;28;20471;-71
2021/03/06 06:11:47;;;;;;;22.67;13.18;;;77.10;2227.20;;;;;;4955823;28;20015;-73
2021/03/06 06:14:13;;;;;;;21.00;12.45;;;77.20;2227.20;;;;;;4955330;28;20039;-71
2021/03/06 06:16:39;;;;;;;19.92;11.43;;;77.20;2227.20;;;;;;4955562;28;20035;-77
2021/03/06 06:19:05;;;;;;;25.40;15.32;;;51.90;2227.20;;;;;;4955488;28;20023;-74
2021/03/06 06:21:44;;;;;;;17.88;11.05;;;77.20;2201.60;;;;;;4955501;28;20043;-73
2021/03/06 06:24:22;;;;;;;15.77;10.27;;;77.30;2176.00;;;;;;4949901;28;20039;-75
2021/03/06 06:27:03;;;;;;;21.98;12.70;;;77.30;2176.00;;;;;;4954328;28;20023;-72
2021/03/06 06:29:42;;;;;;;17.48;10.68;;;77.30;2150.40;;;;;;4941293;28;20027;-72
2021/03/06 06:32:11;;;;;;;19.55;11.07;;;77.40;2150.40;;;;;;4955313;28;20404;-72
2021/03/06 06:34:38;;;;;;;22.17;10.85;;;77.40;2176.00;;;;;;4954857;28;20039;-71
2021/03/06 06:37:12;;;;;;;15.05;9.80;;;77.50;2176.00;;;;;;4955366;28;20043;-72
2021/03/06 06:39:39;;;;;;;19.05;10.57;;;77.50;2150.40;;;;;;4954442;28;20035;-73
2021/03/06 06:42:06;;;;;;;17.58;11.10;;;77.50;2150.40;;;;;;4955201;28;20078;-72
2021/03/06 06:44:32;;;;;;;15.98;10.05;;;77.50;2150.40;;;;;;4955046;28;20046;-73
2021/03/06 06:47:08;;;;;;;17.75;9.77;;;77.60;2124.80;;;;;;4955947;28;20070;-71
2021/03/06 06:49:53;;;;;;;15.35;10.63;;;102.40;2099.20;;;;;;4955470;28;20373;-71
2021/03/06 06:52:22;;;;;;;15.20;9.55;;;102.50;2099.20;;;;;;4953758;28;20031;-71
2021/03/06 06:54:58;;;;;;;19.20;11.20;;;102.60;2048.00;;;;;;4957411;28;20074;-71
2021/03/06 06:57:28;;;;;;;21.98;12.52;;;102.70;2048.00;;;;;;4954520;28;20023;-71
2021/03/06 06:59:59;;;;;;;18.20;11.95;;;102.70;2048.00;;;;;;4955243;28;20397;-71
2021/03/06 07:02:27;;;;;;;23.27;12.80;;;102.60;2048.00;;;;;;4952266;28;20109;-72
2021/03/06 07:04:58;;;;;;;21.88;11.20;;;102.70;2073.60;;;;;;4955050;28;20023;-71
2021/03/06 07:07:36;;;;;;;17.85;10.93;;;102.90;2022.40;;;;;;4955169;28;20181;-73
2021/03/06 07:10:02;;;;;;;30.60;15.48;;;;;;;;;;4955103;28;20027;-71
2021/03/06 07:12:30;;;;;;;22.17;14.15;;;103.20;2227.20;;;;;;4954849;28;20031;-72
2021/03/06 07:14:56;;;;;;;23.27;15.23;;;103.20;1996.80;;;;;;4954334;28;20039;-72
2021/03/06 07:17:22;;;;;;;25.38;18.42;;;103.30;1971.20;;;;;;4956472;28;20023;-73
2021/03/06 07:19:48;;;;;;;21.58;13.35;;;128.00;1971.20;;;;;;4954882;28;20034;-72
2021/03/06 07:22:13;;;;;;;32.22;24.73;;;128.40;2022.40;;;;;;4954518;28;20101;-71
2021/03/06 07:24:39;;;;;;;44.95;36.10;;;128.50;1971.20;;;;;;4954714;28;20027;-72
2021/03/06 07:27:06;;;;;;;28.13;17.13;;;128.50;1920.00;;;;;;4954419;28;20067;-72
2021/03/06 07:29:31;;;;;;;19.92;11.48;;;128.50;1945.60;;;;;;4955377;28;20072;-71
2021/03/06 07:31:59;;;;;;;19.65;10.70;;;128.70;1868.80;;;;;;4954373;28;20494;-72
2021/03/06 07:34:27;;;;;;;18.75;12.05;;;128.70;1894.40;;;;;;4956943;28;20043;-72
2021/03/06 07:37:02;;;;;;;20.98;12.60;;;128.70;1894.40;;;;;;4954992;28;20041;-71
2021/03/06 07:39:36;;;;;;;21.27;11.93;;;128.80;1868.80;;;;;;4954359;28;20027;-71
2021/03/06 07:42:03;;;;;;;26.70;13.93;;;153.60;1843.20;;;;;;4949192;28;20027;-72
2021/03/06 07:44:30;;;;;;;34.35;14.50;;;154.10;1843.20;;;;;;4953372;28;20042;-71
2021/03/06 07:46:58;;;;;;;34.30;12.65;;;179.70;1945.60;;;;;;4952408;28;20516;-72
2021/03/06 07:49:31;;;;;;;24.08;13.70;;;179.70;1715.20;;;;;;4954010;28;20028;-73
2021/03/06 07:51:59;;;;;;;;;;;179.70;1689.60;;;;;;4952994;28;20491;-74
2021/03/06 07:54:25;;;;;;;16.25;10.95;;;179.80;1664.00;;;;;;4956980;28;19918;-75
2021/03/06 07:56:52;;;;;;;16.80;10.10;;;179.90;1638.40;;;;;;4955104;28;20114;-76
2021/03/06 07:59:38;;;;;;;20.70;10.20;;;204.80;1612.80;;;;;;4953591;28;20106;-70
2021/03/06 08:02:32;;;;;;;14.38;9.05;;;204.90;1561.60;;;;;;4950412;28;20027;-71
2021/03/06 08:04:59;;;;;;;23.90;10.57;;;205.20;1561.60;;;;;;4951697;28;20037;-70
2021/03/06 08:07:38;;;;;;;18.08;10.25;;;205.60;1561.60;;;;;;4954238;28;20054;-75
2021/03/06 08:10:04;;;;;;;14.60;8.98;;;205.60;1459.20;;;;;;4950416;28;20037;-74
2021/03/06 08:12:32;;;;;;;16.23;9.10;;;205.60;1433.60;;;;;;4949850;28;20032;-71
2021/03/06 08:14:58;;;;;;;17.90;9.63;;;205.50;1433.60;;;;;;4955867;28;20039;-75
2021/03/06 08:17:34;;;;;;;18.02;9.52;;;205.30;1459.20;;;;;;4953741;28;20033;-75
2021/03/06 08:20:01;;;;;;;20.83;10.65;;;230.40;1433.60;;;;;;4954975;28;20031;-71
2021/03/06 08:22:26;;;;;;;16.35;8.13;;;231.10;1356.80;;;;;;4969173;28;20381;-72
2021/03/06 08:24:52;;;;;;;13.43;7.80;;;231.10;1331.20;;;;;;4952563;28;20027;-72
2021/03/06 08:27:19;;;;;;;13.43;7.80;;;231.30;1331.20;;;;;;4952513;28;20027;-71
2021/03/06 08:29:52;;;;;;;13.15;7.35;;;231.00;1254.40;;;;;;4953602;28;20118;-71
2021/03/06 08:32:24;;;;;;;12.35;7.60;;;205.00;1305.60;;;;;;4953873;28;20046;-72
2021/03/06 08:34:53;;;;;;;15.07;8.32;;;205.00;1331.20;;;;;;4953631;28;20090;-71
2021/03/06 08:37:22;;;;;;;14.13;8.40;;;205.10;1382.40;;;;;;4952118;28;20576;-73
2021/03/06 08:40:08;;;;;;;14.68;8.43;;;205.50;1382.40;;;;;;4952957;28;20023;-74
2021/03/06 08:42:43;;;;;;;13.82;7.97;;;230.50;1331.20;;;;;;4952526;28;20399;-71
2021/03/06 08:45:24;;;;;;;14.80;7.95;;;230.80;1305.60;;;;;;4953366;28;20035;-73
2021/03/06 08:47:54;;;;;;;14.65;8.23;;;256.50;1280.00;;;;;;4952836;28;20086;-71
2021/03/06 08:50:21;;;;;;;15.90;8.02;;;281.70;1177.60;;;;;;4953834;28;20746;-77
2021/03/06 08:52:53;;;;;;;16.10;7.95;;;281.80;1228.80;;;;;;4953600;28;20022;-73
2021/03/06 08:55:27;;;;;;;14.85;7.72;;;281.80;1152.00;;;;;;4952348;28;20035;-72
2021/03/06 08:57:53;;;;;;;11.80;6.90;;;281.60;1126.40;;;;;;4952659;28;20524;-71
2021/03/06 09:00:27;;;;;;;13.27;7.20;;;256.30;1203.20;;;;;;4952444;28;20046;-75
2021/03/06 09:02:54;;;;;;;9.05;5.00;;;256.00;1203.20;;;;;;4953482;28;20032;-73
2021/03/06 09:05:28;;;;;;;10.27;5.45;;;230.80;1126.40;;;;;;4952708;28;20373;-71
2021/03/06 09:07:57;;;;;;;12.48;4.55;;;205.30;1152.00;;;;;;4950893;28;20429;-71
2021/03/06 09:10:31;;;;;;;7.53;4.55;;;179.90;1152.00;;;;;;4957079;28;20086;-71
2021/03/06 09:13:15;;;;;;;7.53;4.50;;;154.50;1152.00;;;;;;4955626;28;20093;-71
2021/03/06 09:15:53;;;;;;;11.25;4.68;;;154.40;1177.60;;;;;;4959451;28;20382;-73
2021/03/06 09:18:23;;;;;;;7.63;4.40;;;154.20;1254.40;;;;;;4957469;28;20785;-72
2021/03/06 09:20:55;;;;;;;7.95;4.50;;;154.00;1177.60;;;;;;4957168;28;20023;-72
2021/03/06 09:23:28;;;;;;;8.68;4.72;;;154.00;1203.20;;;;;;4956462;28;20027;-72
2021/03/06 09:25:54;;;;;;;7.68;4.75;;;153.80;1254.40;;;;;;4956081;28;20098;-72
2021/03/06 09:28:27;;;;;;;9.20;4.88;;;153.60;1254.40;;;;;;4956030;28;20728;-73
2021/03/06 09:30:54;;;;;;;8.13;4.80;;;153.60;1280.00;;;;;;4956469;28;20027;-74
2021/03/06 09:33:34;;;;;;;6.85;4.65;;;128.60;1254.40;;;;;;4965339;28;20527;-73
2021/03/06 09:36:07;;;;;;;7.90;5.00;;;128.90;1305.60;;;;;;4959440;28;20050;-73
2021/03/06 09:38:34;;;;;;;7.65;4.70;;;128.80;1254.40;;;;;;4954905;28;20074;-75
2021/03/06 09:41:01;;;;;;;11.65;5.47;;;128.50;1280.00;;;;;;4956056;28;20023;-73
2021/03/06 09:43:29;;;;;;;9.13;4.60;;;128.50;1331.20;;;;;;4955810;28;20032;-72
2021/03/06 09:45:55;;;;;;;33.83;23.58;;;128.40;1280.00;;;;;;4955992;28;20031;-71
2021/03/06 09:48:22;;;;;;;9.40;5.15;;;128.10;1305.60;;;;;;4959460;28;20028;-71
2021/03/06 09:50:48;;;;;;;8.20;4.70;;;128.30;1280.00;;;;;;4942071;28;20039;-71
2021/03/06 09:53:23;;;;;;;7.72;4.53;;;128.40;1254.40;;;;;;4955510;28;20023;-71
2021/03/06 09:56:10;;;;;;;10.00;5.03;;;128.30;1254.40;;;;;;4952728;28;20031;-72
2021/03/06 09:58:37;;;;;;;7.53;4.55;;;128.10;1228.80;;;;;;4952637;28;20082;-69
2021/03/06 10:01:20;;;;;;;7.68;4.90;;;128.20;1280.00;;;;;;4956307;28;20114;-72
2021/03/06 10:03:48;;;;;;;7.15;4.65;;;128.50;1305.60;;;;;;4936315;28;20038;-72
2021/03/06 10:06:22;;;;;;;7.97;5.20;;;128.60;1280.00;;;;;;4959480;28;20400;-72
2021/03/06 10:08:55;;;;;;;8.25;5.15;;;128.90;1305.60;;;;;;4956163;28;20384;-71
2021/03/06 10:11:35;;;;;;;9.30;4.50;;;128.80;1305.60;;;;;;4956156;28;20765;-72
2021/03/06 10:14:01;;;;;;;7.82;4.78;;;128.80;1280.00;;;;;;4955770;28;20372;-72
2021/03/06 10:16:28;;;;;;;9.38;4.70;;;128.90;1280.00;;;;;;4955391;28;20035;-73
2021/03/06 10:19:01;;;;;;;9.07;5.60;;;128.80;1254.40;;;;;;4958563;28;20127;-71
2021/03/06 10:21:27;;;;;;;9.55;5.15;;;153.70;1228.80;;;;;;4958568;28;20023;-75
2021/03/06 10:24:04;;;;;;;7.18;4.50;;;154.20;1228.80;;;;;;4957354;28;20082;-72
2021/03/06 10:26:30;;;;;;;8.50;4.35;;;154.30;1152.00;;;;;;4953241;28;20031;-72
2021/03/06 10:28:59;;;;;;;7.40;4.57;;;179.50;1152.00;;;;;;4955343;28;20031;-72
2021/03/06 10:31:26;;;;;;;8.45;5.65;;;179.70;1075.20;;;;;;4951294;28;20034;-73
2021/03/06 10:33:52;;;;;;;9.10;5.28;;;179.80;1126.40;;;;;;4954558;28;20066;-71
2021/03/06 10:36:18;;;;;;;11.95;5.50;;;179.90;1152.00;;;;;;4957500;28;20046;-71
2021/03/06 10:38:44;;;;;;;8.85;5.25;;;179.90;1075.20;;;;;;4959184;28;20027;-72
2021/03/06 10:41:23;;;;;;;12.15;7.50;;;179.70;1075.20;;;;;;4956193;28;20059;-72
2021/03/06 10:43:53;;;;;;;9.23;6.20;;;179.30;1100.80;;;;;;4955697;28;20051;-72
2021/03/06 10:46:21;;;;;;;9.35;5.20;;;179.30;1100.80;;;;;;4962525;28;20036;-72
2021/03/06 10:48:57;;;;;;;7.88;4.68;;;154.30;1075.20;;;;;;4955707;29;20485;-72
2021/03/06 10:51:25;;;;;;;7.03;4.35;;;179.30;1075.20;;;;;;4947703;28;20035;-71
2021/03/06 10:54:00;;;;;;;6.68;4.18;;;179.30;1049.60;;;;;;4955874;28;20109;-72
2021/03/06 10:56:26;;;;;;;9.07;4.43;;;179.20;1049.60;;;;;;4953460;28;20173;-72
2021/03/06 10:58:52;;;;;;;10.85;5.05;;;154.40;1049.60;;;;;;4952992;28;20464;-72
2021/03/06 11:01:18;;;;;;;8.93;4.97;;;179.20;1075.20;;;;;;4964738;28;20204;-72
2021/03/06 11:03:45;;;;;;;8.10;5.03;;;179.50;1100.80;;;;;;4955511;28;20385;-72
2021/03/06 11:06:12;;;;;;;8.77;4.47;;;179.70;1100.80;;;;;;4956777;28;20043;-71
2021/03/06 11:08:39;;;;;;;13.75;4.20;;;179.90;972.80;;;;;;4961925;28;20477;-72
2021/03/06 11:11:07;;;;;;;7.45;4.57;;;179.90;1049.60;;;;;;4937931;29;20032;-71
2021/03/06 11:13:42;;;;;;;8.43;4.90;;;180.10;998.40;;;;;;4956627;28;20031;-72
2021/03/06 11:16:12;;;;;;;7.40;4.18;;;204.80;998.40;;;;;;4954526;29;20085;-72
2021/03/06 11:18:39;;;;;;;8.00;4.43;;;180.10;947.20;;;;;;4949031;28;20046;-72
2021/03/06 11:21:08;;;;;;;8.68;4.43;;;179.80;998.40;;;;;;4956044;28;20508;-72
2021/03/06 11:23:35;;;;;;;6.97;4.57;;;179.70;947.20;;;;;;4956047;28;20114;-71
2021/03/06 11:26:01;;;;;;;6.78;4.10;;;179.80;947.20;;;;;;4954358;28;20027;-72
2021/03/06 11:28:27;;;;;;;7.32;4.30;;;180.00;947.20;;;;;;4955907;28;20050;-71
2021/03/06 11:30:52;;;;;;;9.05;5.38;;;180.10;921.60;;;;;;4954955;28;20059;-71
2021/03/06 11:33:19;;;;;;;8.75;4.70;;;179.80;947.20;;;;;;4954228;28;20501;-72
2021/03/06 11:35:47;;;;;;;7.65;4.18;;;179.70;947.20;;;;;;4946589;28;20437;-72
2021/03/06 11:38:15;;;;;;;6.70;4.10;;;179.70;972.80;;;;;;4955017;28;20491;-72
2021/03/06 11:40:47;;;;;;;8.05;3.97;;;179.60;998.40;;;;;;4954055;28;21848;-72
2021/03/06 11:43:14;;;;;;;7.80;4.68;;;179.40;998.40;;;;;;4954155;28;20027;-72
2021/03/06 11:45:40;;;;;;;5.88;3.75;;;179.60;972.80;;;;;;4963646;28;20058;-72
2021/03/06 11:48:07;;;;;;;6.38;3.63;;;179.80;921.60;;;;;;4962322;28;20110;-73
2021/03/06 11:50:39;;;;;;;8.30;3.80;;;179.60;921.60;;;;;;4954394;28;20035;-73
2021/03/06 11:53:05;;;;;;;6.53;3.85;;;179.60;921.60;;;;;;5101883;23;20081;-67
2021/03/06 11:55:32;;;;;;;9.20;4.25;;;179.50;921.60;;;;;;4960313;28;20117;-71
2021/03/06 11:57:57;;;;;;;5.93;3.90;;;179.70;972.80;;;;;;4962017;28;20023;-73
2021/03/06 12:00:25;;;;;;;5.82;3.50;;;180.00;972.80;;;;;;4968301;28;20423;-83
2021/03/06 12:02:51;;;;;;;4.90;3.42;;;204.80;921.60;;;;;;4957672;28;20489;-85
2021/03/06 12:05:17;;;;;;;11.45;3.70;;;204.90;896.00;;;;;;4966555;28;20035;-89
2021/03/06 12:07:44;;;;;;;4.70;3.45;;;205.10;896.00;;;;;;4957575;28;20031;-86
2021/03/06 12:10:12;;;;;;;11.73;7.57;;;205.10;870.40;;;;;;4961305;28;20323;-89
2021/03/06 12:12:39;;;;;;;7.65;4.65;;;205.10;921.60;;;;;;4952965;28;20039;-83
2021/03/06 12:15:09;;;;;;;9.77;6.28;;;205.10;896.00;;;;;;4953539;28;20039;-90
2021/03/06 12:17:35;;;;;;;7.45;5.03;;;205.20;921.60;;;;;;4957113;28;20031;-86
2021/03/06 12:20:01;;;;;;;7.50;4.13;;;205.30;896.00;;;;;;4955633;28;20078;-71
2021/03/06 12:22:27;;;;;;;6.90;4.00;;;205.10;870.40;;;;;;4954534;28;20128;-87
2021/03/06 12:24:53;;;;;;;8.23;3.83;;;205.30;870.40;;;;;;4959039;28;20027;-87
2021/03/06 12:27:18;;;;;;;5.95;3.50;;;205.20;844.80;;;;;;4962524;28;20033;-69
2021/03/06 12:29:44;;;;;;;4.30;3.15;;;205.10;844.80;;;;;;4953467;28;20027;-89
2021/03/06 12:32:10;;;;;;;6.97;3.50;;;205.20;844.80;;;;;;4954373;28;20089;-89
2021/03/06 12:34:37;;;;;;;11.63;3.53;;;205.20;870.40;;;;;;4954556;28;20500;-83